Dzerzhinsk, Russia
Current Conditions -  °F | °C
As of 3:30 AM on Thursday 23 Oct 2014 (Local Time) from UWGG Reporting Station
Light Snow Light Snow  
Wind Chill:   Ceiling: 1300
Heat Index: 12°   Visibility: 6mi
Dew Point:   Wind: 9mph
Humidity: 79%   Direction: 280°W
Pressure: 29.97"   Gusts: NA
Location:  56.24°N, 43.46°E
Report Text: UWGG 230030Z 28004MPS 9000 -SN OVC013 M11/M14 Q1015 NOSIG36450239 RMK QFE754
Loading
Personal Weather Stations






























Interactive Weather Map
Tropical Storm Tracking
New forecast layout! Learn more

10-Day Weather Forecast

Advertisements
Track Severe Weather on mobile